logo
Search for airport 
image banner adimage banner adimage banner ad
image banner ad

SHHF - Hospital Fach

Located in Santiago, Chile

ICAO - SHHF, IATA -

Data provided by Airmate  

General information

Coordinates: S33°23'50" W70°32'45"
Elevation is 2574 feet MSL.
 
View others Airports in Santiago Metropolitan Region

Operational data

Special qualification required
Current time UTC:
Current local time:
Weather at : SCTB - Eulogio Sanchez - Tobalaba ( 7 km )
METAR: SCTB 221200Z 00000KT 8000 OVC100 11/08 Q1016
TAF: TAF SCTB 221013Z 2212/2224 VRB02KT 9999 OVC150 TX14/2219Z TN10/2212Z TEMPO 2212/2214 6000 BKN010 BECMG 2216/2218 22008KT
View NOTAMs / SUP AIP / TFR affecting this airport [VIEW]
Communications frequencies: [VIEW]

Runways:

Airport contact information

Address: Santiago Chile

Satellite view of SHHF